This is the latest recevied weather packets stored in our database for station/object N0NPO. If no packets are shown the sender has not sent any weather packets the latest 10 day(s).
| Time | Temp. | Humidity | Pressure | Rain* | Wind** | Luminosity | Snow |
|---|---|---|---|---|---|---|---|
| 1778097990 | 11.67° C | 1% | 1019.7 hPa | 0 mm | - | 637 W/m² | - |
| 1778097687 | 11.67° C | 1% | 1019.7 hPa | 0 mm | - | 662 W/m² | - |
| 1778097383 | 11.67° C | 1% | 1019.7 hPa | 0 mm | - | 554 W/m² | - |
| 1778097080 | 11.11° C | 1% | 1020.1 hPa | 0 mm | - | 647 W/m² | - |
| 1778096777 | 11.67° C | 1% | 1019.9 hPa | 0 mm | - | 702 W/m² | - |
| 1778096474 | 11.11° C | 1% | 1020 hPa | 0 mm | - | 703 W/m² | - |
| 1778096172 | 11.67° C | 1% | 1019.8 hPa | 0 mm | - | 642 W/m² | - |
| 1778095869 | 11.11° C | 1% | 1020 hPa | 0 mm | - | 727 W/m² | - |
| 1778095565 | 11.11° C | 1% | 1020 hPa | 0 mm | - | 690 W/m² | - |
| 1778095261 | 11.67° C | 1% | 1020.1 hPa | 0 mm | - | 668 W/m² | - |
| 1778094958 | 11.11° C | 1% | 1020.2 hPa | 0 mm | - | 689 W/m² | - |
| 1778094654 | 11.11° C | 1% | 1020.4 hPa | 0 mm | - | 646 W/m² | - |
| 1778094352 | 10.56° C | 1% | 1020.5 hPa | 0 mm | - | 724 W/m² | - |
| 1778094048 | 10.56° C | 1% | 1020.5 hPa | 0 mm | - | 745 W/m² | - |
| 1778093745 | 10.56° C | 1% | 1020.5 hPa | 0 mm | - | 744 W/m² | - |
| 1778093442 | 11.67° C | 1% | 1020.5 hPa | 0 mm | - | 728 W/m² | - |
| 1778093139 | 11.11° C | 1% | 1020.7 hPa | 0 mm | - | 729 W/m² | - |
| 1778092837 | 10° C | 1% | 1020.9 hPa | 0 mm | - | 722 W/m² | - |
| 1778092532 | 10° C | 1% | 1020.8 hPa | 0 mm | - | 668 W/m² | - |
| 1778092229 | 10.56° C | 1% | 1020.9 hPa | 0 mm | - | 673 W/m² | - |
| 1778091927 | 10° C | 1% | 1021 hPa | 0 mm | - | 746 W/m² | - |
| 1778091624 | 10.56° C | 1% | 1021.2 hPa | 0 mm | - | 571 W/m² | - |
| 1778091321 | 10.56° C | 1% | 1021.2 hPa | 0 mm | - | 773 W/m² | - |
| 1778091018 | 10° C | 1% | 1021.3 hPa | 0 mm | - | 793 W/m² | - |
| 1778090715 | 10° C | 1% | 1021.3 hPa | 0 mm | - | 646 W/m² | - |
* Rain latest hour (hover to see other rain measurements)
** Current wind speed in m/s (hover to see current wind gust speed)